sensor_id;sensor_type;location;lat;lon;timestamp;temperature;humidity
2945;DHT22;1482;51.398;7.128;2023-06-19T00:02:14;24.10;1.00
2945;DHT22;1482;51.398;7.128;2023-06-19T00:04:40;24.00;1.00
2945;DHT22;1482;51.398;7.128;2023-06-19T00:07:05;23.90;1.00
2945;DHT22;1482;51.398;7.128;2023-06-19T00:09:32;23.80;1.00
2945;DHT22;1482;51.398;7.128;2023-06-19T00:11:58;23.80;1.00
2945;DHT22;1482;51.398;7.128;2023-06-19T00:14:25;23.80;1.00
2945;DHT22;1482;51.398;7.128;2023-06-19T00:16:50;23.70;1.00
2945;DHT22;1482;51.398;7.128;2023-06-19T00:19:16;23.70;1.00
2945;DHT22;1482;51.398;7.128;2023-06-19T00:21:43;23.70;1.00
2945;DHT22;1482;51.398;7.128;2023-06-19T00:24:09;23.60;1.00
2945;DHT22;1482;51.398;7.128;2023-06-19T00:26:35;23.60;1.00
2945;DHT22;1482;51.398;7.128;2023-06-19T00:29:01;23.60;1.00
2945;DHT22;1482;51.398;7.128;2023-06-19T00:31:26;23.60;1.00
2945;DHT22;1482;51.398;7.128;2023-06-19T00:33:53;23.50;1.00
2945;DHT22;1482;51.398;7.128;2023-06-19T00:36:18;23.40;1.00
2945;DHT22;1482;51.398;7.128;2023-06-19T00:38:49;23.20;1.00
2945;DHT22;1482;51.398;7.128;2023-06-19T00:41:17;23.20;1.00
2945;DHT22;1482;51.398;7.128;2023-06-19T00:43:42;23.10;1.00
2945;DHT22;1482;51.398;7.128;2023-06-19T00:46:09;23.00;1.00
2945;DHT22;1482;51.398;7.128;2023-06-19T00:48:35;22.90;1.00
2945;DHT22;1482;51.398;7.128;2023-06-19T00:51:01;22.80;1.00
2945;DHT22;1482;51.398;7.128;2023-06-19T00:53:27;22.70;1.00
2945;DHT22;1482;51.398;7.128;2023-06-19T00:55:53;22.70;1.00
2945;DHT22;1482;51.398;7.128;2023-06-19T00:58:20;22.70;1.00
2945;DHT22;1482;51.398;7.128;2023-06-19T01:00:47;22.60;1.00
2945;DHT22;1482;51.398;7.128;2023-06-19T01:03:14;22.70;1.00
2945;DHT22;1482;51.398;7.128;2023-06-19T01:05:40;22.70;1.00
2945;DHT22;1482;51.398;7.128;2023-06-19T01:08:49;22.70;1.00
2945;DHT22;1482;51.398;7.128;2023-06-19T01:11:18;22.70;1.00
2945;DHT22;1482;51.398;7.128;2023-06-19T01:13:48;22.60;1.00
2945;DHT22;1482;51.398;7.128;2023-06-19T01:16:16;22.70;1.00
2945;DHT22;1482;51.398;7.128;2023-06-19T01:18:42;22.70;1.00
2945;DHT22;1482;51.398;7.128;2023-06-19T01:21:15;22.70;1.00
2945;DHT22;1482;51.398;7.128;2023-06-19T01:23:41;22.70;1.00
2945;DHT22;1482;51.398;7.128;2023-06-19T01:26:07;22.70;1.00
2945;DHT22;1482;51.398;7.128;2023-06-19T01:28:38;22.70;1.00
2945;DHT22;1482;51.398;7.128;2023-06-19T01:31:11;22.70;1.00
2945;DHT22;1482;51.398;7.128;2023-06-19T01:33:38;22.70;1.00
2945;DHT22;1482;51.398;7.128;2023-06-19T01:36:05;22.70;1.00
2945;DHT22;1482;51.398;7.128;2023-06-19T01:38:32;22.70;1.00
2945;DHT22;1482;51.398;7.128;2023-06-19T01:41:01;22.70;1.00
2945;DHT22;1482;51.398;7.128;2023-06-19T01:43:29;22.80;1.00
2945;DHT22;1482;51.398;7.128;2023-06-19T01:45:56;22.70;1.00
2945;DHT22;1482;51.398;7.128;2023-06-19T01:48:21;22.80;1.00
2945;DHT22;1482;51.398;7.128;2023-06-19T01:50:48;22.70;1.00
2945;DHT22;1482;51.398;7.128;2023-06-19T01:53:14;22.80;1.00
2945;DHT22;1482;51.398;7.128;2023-06-19T01:55:40;22.80;1.00
2945;DHT22;1482;51.398;7.128;2023-06-19T01:58:06;22.70;1.00
2945;DHT22;1482;51.398;7.128;2023-06-19T02:00:32;22.70;1.00
2945;DHT22;1482;51.398;7.128;2023-06-19T02:03:01;22.80;1.00
2945;DHT22;1482;51.398;7.128;2023-06-19T02:05:26;22.70;1.00
2945;DHT22;1482;51.398;7.128;2023-06-19T02:07:52;22.70;1.00
2945;DHT22;1482;51.398;7.128;2023-06-19T02:10:17;22.70;1.00
2945;DHT22;1482;51.398;7.128;2023-06-19T02:12:43;22.70;1.00
2945;DHT22;1482;51.398;7.128;2023-06-19T02:15:09;22.60;1.00
2945;DHT22;1482;51.398;7.128;2023-06-19T02:17:35;22.60;1.00
2945;DHT22;1482;51.398;7.128;2023-06-19T02:20:00;22.60;1.00
2945;DHT22;1482;51.398;7.128;2023-06-19T02:22:26;22.60;1.00
2945;DHT22;1482;51.398;7.128;2023-06-19T02:24:51;22.50;1.00
2945;DHT22;1482;51.398;7.128;2023-06-19T02:27:17;22.50;1.00
2945;DHT22;1482;51.398;7.128;2023-06-19T02:29:42;22.50;1.00
2945;DHT22;1482;51.398;7.128;2023-06-19T02:32:08;22.50;1.00
2945;DHT22;1482;51.398;7.128;2023-06-19T02:34:33;22.40;1.00
2945;DHT22;1482;51.398;7.128;2023-06-19T02:36:59;22.50;1.00
2945;DHT22;1482;51.398;7.128;2023-06-19T02:39:25;22.50;1.00
2945;DHT22;1482;51.398;7.128;2023-06-19T02:41:50;22.50;1.00
2945;DHT22;1482;51.398;7.128;2023-06-19T02:44:16;22.50;1.00
2945;DHT22;1482;51.398;7.128;2023-06-19T02:46:41;22.50;1.00
2945;DHT22;1482;51.398;7.128;2023-06-19T02:49:07;22.50;1.00
2945;DHT22;1482;51.398;7.128;2023-06-19T02:51:32;22.50;1.00
2945;DHT22;1482;51.398;7.128;2023-06-19T02:53:58;22.50;1.00
2945;DHT22;1482;51.398;7.128;2023-06-19T02:56:26;22.50;1.00
2945;DHT22;1482;51.398;7.128;2023-06-19T02:58:54;22.50;1.00
2945;DHT22;1482;51.398;7.128;2023-06-19T03:01:19;22.50;1.00
2945;DHT22;1482;51.398;7.128;2023-06-19T03:03:45;22.50;1.00
2945;DHT22;1482;51.398;7.128;2023-06-19T03:06:12;22.50;1.00
2945;DHT22;1482;51.398;7.128;2023-06-19T03:08:39;22.60;1.00
2945;DHT22;1482;51.398;7.128;2023-06-19T03:11:05;22.60;1.00
2945;DHT22;1482;51.398;7.128;2023-06-19T03:13:46;22.70;1.00
2945;DHT22;1482;51.398;7.128;2023-06-19T03:16:12;22.60;1.00
2945;DHT22;1482;51.398;7.128;2023-06-19T03:18:37;22.60;1.00
2945;DHT22;1482;51.398;7.128;2023-06-19T03:21:03;22.60;1.00
2945;DHT22;1482;51.398;7.128;2023-06-19T03:23:28;22.60;1.00
2945;DHT22;1482;51.398;7.128;2023-06-19T03:25:54;22.50;1.00
2945;DHT22;1482;51.398;7.128;2023-06-19T03:28:19;22.60;1.00
2945;DHT22;1482;51.398;7.128;2023-06-19T03:30:45;22.50;1.00
2945;DHT22;1482;51.398;7.128;2023-06-19T03:33:10;22.50;1.00
2945;DHT22;1482;51.398;7.128;2023-06-19T03:35:36;22.40;1.00
2945;DHT22;1482;51.398;7.128;2023-06-19T03:38:01;22.40;1.00
2945;DHT22;1482;51.398;7.128;2023-06-19T03:40:27;22.40;1.00
2945;DHT22;1482;51.398;7.128;2023-06-19T03:42:54;22.40;1.00
2945;DHT22;1482;51.398;7.128;2023-06-19T03:45:20;22.40;1.00
2945;DHT22;1482;51.398;7.128;2023-06-19T03:47:45;22.40;1.00
2945;DHT22;1482;51.398;7.128;2023-06-19T03:50:11;22.30;1.00
2945;DHT22;1482;51.398;7.128;2023-06-19T03:52:36;22.30;1.00
2945;DHT22;1482;51.398;7.128;2023-06-19T03:55:03;22.30;1.00
2945;DHT22;1482;51.398;7.128;2023-06-19T03:57:29;22.30;1.00
2945;DHT22;1482;51.398;7.128;2023-06-19T03:59:55;22.30;1.00
2945;DHT22;1482;51.398;7.128;2023-06-19T04:02:21;22.20;1.00
2945;DHT22;1482;51.398;7.128;2023-06-19T04:04:47;22.20;1.00
2945;DHT22;1482;51.398;7.128;2023-06-19T04:07:12;22.20;1.00
2945;DHT22;1482;51.398;7.128;2023-06-19T04:09:38;22.10;1.00
2945;DHT22;1482;51.398;7.128;2023-06-19T04:12:04;22.00;1.00
2945;DHT22;1482;51.398;7.128;2023-06-19T04:14:30;21.90;1.00
2945;DHT22;1482;51.398;7.128;2023-06-19T04:16:56;21.80;1.00
2945;DHT22;1482;51.398;7.128;2023-06-19T04:19:21;21.80;1.00
2945;DHT22;1482;51.398;7.128;2023-06-19T04:21:47;21.90;1.00
2945;DHT22;1482;51.398;7.128;2023-06-19T04:24:12;22.10;1.00
2945;DHT22;1482;51.398;7.128;2023-06-19T04:26:38;22.50;1.00
2945;DHT22;1482;51.398;7.128;2023-06-19T04:29:03;23.00;1.00
2945;DHT22;1482;51.398;7.128;2023-06-19T04:31:30;23.70;1.00
2945;DHT22;1482;51.398;7.128;2023-06-19T04:33:56;24.20;1.00
2945;DHT22;1482;51.398;7.128;2023-06-19T04:36:22;24.70;1.00
2945;DHT22;1482;51.398;7.128;2023-06-19T04:38:48;25.00;1.00
2945;DHT22;1482;51.398;7.128;2023-06-19T04:41:13;24.90;1.00
2945;DHT22;1482;51.398;7.128;2023-06-19T04:43:39;24.90;1.00
2945;DHT22;1482;51.398;7.128;2023-06-19T04:46:07;24.40;1.00
2945;DHT22;1482;51.398;7.128;2023-06-19T04:48:32;23.80;1.00
2945;DHT22;1482;51.398;7.128;2023-06-19T04:51:01;23.50;1.00
2945;DHT22;1482;51.398;7.128;2023-06-19T04:53:27;23.30;1.00
2945;DHT22;1482;51.398;7.128;2023-06-19T04:55:53;22.90;1.00
2945;DHT22;1482;51.398;7.128;2023-06-19T04:58:23;22.70;1.00
2945;DHT22;1482;51.398;7.128;2023-06-19T05:00:48;22.50;1.00
2945;DHT22;1482;51.398;7.128;2023-06-19T05:03:17;22.60;1.00
2945;DHT22;1482;51.398;7.128;2023-06-19T05:05:44;23.00;1.00
2945;DHT22;1482;51.398;7.128;2023-06-19T05:08:09;22.90;1.00
2945;DHT22;1482;51.398;7.128;2023-06-19T05:10:35;22.90;1.00
2945;DHT22;1482;51.398;7.128;2023-06-19T05:13:01;22.90;1.00
2945;DHT22;1482;51.398;7.128;2023-06-19T05:15:27;22.90;1.00
2945;DHT22;1482;51.398;7.128;2023-06-19T05:17:53;22.80;1.00
2945;DHT22;1482;51.398;7.128;2023-06-19T05:20:19;22.70;1.00
2945;DHT22;1482;51.398;7.128;2023-06-19T05:22:44;23.30;1.00
2945;DHT22;1482;51.398;7.128;2023-06-19T05:25:10;24.50;1.00
2945;DHT22;1482;51.398;7.128;2023-06-19T05:27:35;25.10;1.00
2945;DHT22;1482;51.398;7.128;2023-06-19T05:30:01;25.20;1.00
2945;DHT22;1482;51.398;7.128;2023-06-19T05:32:27;25.10;1.00
2945;DHT22;1482;51.398;7.128;2023-06-19T05:34:53;24.90;1.00
2945;DHT22;1482;51.398;7.128;2023-06-19T05:37:18;24.80;1.00
2945;DHT22;1482;51.398;7.128;2023-06-19T05:39:44;24.30;1.00
2945;DHT22;1482;51.398;7.128;2023-06-19T05:42:09;24.00;1.00
2945;DHT22;1482;51.398;7.128;2023-06-19T05:44:35;23.90;1.00
2945;DHT22;1482;51.398;7.128;2023-06-19T05:47:00;23.70;1.00
2945;DHT22;1482;51.398;7.128;2023-06-19T05:49:26;23.50;1.00
2945;DHT22;1482;51.398;7.128;2023-06-19T05:51:52;23.20;1.00
2945;DHT22;1482;51.398;7.128;2023-06-19T05:54:17;23.00;1.00
2945;DHT22;1482;51.398;7.128;2023-06-19T05:56:43;22.90;1.00
2945;DHT22;1482;51.398;7.128;2023-06-19T05:59:09;22.70;1.00
2945;DHT22;1482;51.398;7.128;2023-06-19T06:01:34;22.90;1.00
2945;DHT22;1482;51.398;7.128;2023-06-19T06:04:00;23.00;1.00
2945;DHT22;1482;51.398;7.128;2023-06-19T06:06:26;23.10;1.00
2945;DHT22;1482;51.398;7.128;2023-06-19T06:08:53;23.40;1.00
2945;DHT22;1482;51.398;7.128;2023-06-19T06:11:20;23.60;1.00
2945;DHT22;1482;51.398;7.128;2023-06-19T06:13:45;23.60;1.00
2945;DHT22;1482;51.398;7.128;2023-06-19T06:16:11;24.70;1.00
2945;DHT22;1482;51.398;7.128;2023-06-19T06:18:36;25.30;1.00
2945;DHT22;1482;51.398;7.128;2023-06-19T06:21:02;26.30;1.00
2945;DHT22;1482;51.398;7.128;2023-06-19T06:23:28;26.50;1.00
2945;DHT22;1482;51.398;7.128;2023-06-19T06:25:53;26.20;1.00
2945;DHT22;1482;51.398;7.128;2023-06-19T06:28:26;26.30;1.00
2945;DHT22;1482;51.398;7.128;2023-06-19T06:30:52;26.10;1.00
2945;DHT22;1482;51.398;7.128;2023-06-19T06:33:17;25.90;1.00
2945;DHT22;1482;51.398;7.128;2023-06-19T06:35:43;25.60;1.00
2945;DHT22;1482;51.398;7.128;2023-06-19T06:38:09;26.20;1.00
2945;DHT22;1482;51.398;7.128;2023-06-19T06:40:35;26.10;1.00
2945;DHT22;1482;51.398;7.128;2023-06-19T06:43:00;26.10;1.00
2945;DHT22;1482;51.398;7.128;2023-06-19T06:45:26;26.20;1.00
2945;DHT22;1482;51.398;7.128;2023-06-19T06:47:51;26.50;1.00
2945;DHT22;1482;51.398;7.128;2023-06-19T06:50:17;27.80;1.00
2945;DHT22;1482;51.398;7.128;2023-06-19T06:52:42;29.30;1.00
2945;DHT22;1482;51.398;7.128;2023-06-19T06:55:08;29.60;1.00
2945;DHT22;1482;51.398;7.128;2023-06-19T06:57:35;29.40;1.00
2945;DHT22;1482;51.398;7.128;2023-06-19T07:00:01;29.20;1.00
2945;DHT22;1482;51.398;7.128;2023-06-19T07:02:28;28.80;1.00
2945;DHT22;1482;51.398;7.128;2023-06-19T07:04:55;28.10;1.00
2945;DHT22;1482;51.398;7.128;2023-06-19T07:07:20;27.60;1.00
2945;DHT22;1482;51.398;7.128;2023-06-19T07:09:46;27.10;1.00
2945;DHT22;1482;51.398;7.128;2023-06-19T07:12:12;26.70;1.00
2945;DHT22;1482;51.398;7.128;2023-06-19T07:14:38;26.20;1.00
2945;DHT22;1482;51.398;7.128;2023-06-19T07:17:03;25.90;1.00
2945;DHT22;1482;51.398;7.128;2023-06-19T07:19:32;25.50;1.00
2945;DHT22;1482;51.398;7.128;2023-06-19T07:21:59;25.30;1.00
2945;DHT22;1482;51.398;7.128;2023-06-19T07:24:25;25.00;1.00
2945;DHT22;1482;51.398;7.128;2023-06-19T07:26:50;24.80;1.00
2945;DHT22;1482;51.398;7.128;2023-06-19T07:29:16;24.60;1.00
2945;DHT22;1482;51.398;7.128;2023-06-19T07:31:41;24.40;1.00
2945;DHT22;1482;51.398;7.128;2023-06-19T07:34:10;24.20;1.00
2945;DHT22;1482;51.398;7.128;2023-06-19T07:36:35;24.00;1.00
2945;DHT22;1482;51.398;7.128;2023-06-19T07:39:01;23.80;1.00
2945;DHT22;1482;51.398;7.128;2023-06-19T07:41:27;23.50;1.00
2945;DHT22;1482;51.398;7.128;2023-06-19T07:43:53;23.40;1.00
2945;DHT22;1482;51.398;7.128;2023-06-19T07:46:18;23.20;1.00
2945;DHT22;1482;51.398;7.128;2023-06-19T07:48:44;23.10;1.00
2945;DHT22;1482;51.398;7.128;2023-06-19T07:51:09;23.00;1.00
2945;DHT22;1482;51.398;7.128;2023-06-19T07:53:35;23.10;1.00
2945;DHT22;1482;51.398;7.128;2023-06-19T07:56:01;23.00;1.00
2945;DHT22;1482;51.398;7.128;2023-06-19T07:58:26;23.00;1.00
2945;DHT22;1482;51.398;7.128;2023-06-19T08:00:52;23.00;1.00
2945;DHT22;1482;51.398;7.128;2023-06-19T08:03:17;23.20;1.00
2945;DHT22;1482;51.398;7.128;2023-06-19T08:05:43;23.70;1.00
2945;DHT22;1482;51.398;7.128;2023-06-19T08:08:09;24.20;1.00
2945;DHT22;1482;51.398;7.128;2023-06-19T08:10:34;24.50;1.00
2945;DHT22;1482;51.398;7.128;2023-06-19T08:13:00;24.70;1.00
2945;DHT22;1482;51.398;7.128;2023-06-19T08:15:25;24.80;1.00
2945;DHT22;1482;51.398;7.128;2023-06-19T08:17:51;24.90;1.00
2945;DHT22;1482;51.398;7.128;2023-06-19T08:20:16;24.80;1.00
2945;DHT22;1482;51.398;7.128;2023-06-19T08:22:42;24.70;1.00
2945;DHT22;1482;51.398;7.128;2023-06-19T08:25:08;24.60;1.00
2945;DHT22;1482;51.398;7.128;2023-06-19T08:27:33;24.60;1.00
2945;DHT22;1482;51.398;7.128;2023-06-19T08:29:59;24.40;1.00
2945;DHT22;1482;51.398;7.128;2023-06-19T08:32:24;24.30;1.00
2945;DHT22;1482;51.398;7.128;2023-06-19T08:34:50;24.10;1.00
2945;DHT22;1482;51.398;7.128;2023-06-19T08:37:17;23.80;1.00
2945;DHT22;1482;51.398;7.128;2023-06-19T08:39:43;23.90;1.00
2945;DHT22;1482;51.398;7.128;2023-06-19T08:42:09;23.70;1.00
2945;DHT22;1482;51.398;7.128;2023-06-19T08:44:35;24.00;1.00
2945;DHT22;1482;51.398;7.128;2023-06-19T08:47:04;24.20;1.00
2945;DHT22;1482;51.398;7.128;2023-06-19T08:49:34;24.70;1.00
2945;DHT22;1482;51.398;7.128;2023-06-19T08:52:02;25.10;1.00
2945;DHT22;1482;51.398;7.128;2023-06-19T08:54:28;25.40;1.00
2945;DHT22;1482;51.398;7.128;2023-06-19T08:56:53;25.60;1.00
2945;DHT22;1482;51.398;7.128;2023-06-19T08:59:20;25.80;1.00
2945;DHT22;1482;51.398;7.128;2023-06-19T09:01:51;26.00;1.00
2945;DHT22;1482;51.398;7.128;2023-06-19T09:04:21;26.30;1.00
2945;DHT22;1482;51.398;7.128;2023-06-19T09:06:55;26.60;1.00
2945;DHT22;1482;51.398;7.128;2023-06-19T09:09:23;26.80;1.00
2945;DHT22;1482;51.398;7.128;2023-06-19T09:17:00;27.50;1.00
2945;DHT22;1482;51.398;7.128;2023-06-19T09:19:25;27.80;1.00
2945;DHT22;1482;51.398;7.128;2023-06-19T09:21:51;28.10;1.00
2945;DHT22;1482;51.398;7.128;2023-06-19T09:24:17;28.50;1.00
2945;DHT22;1482;51.398;7.128;2023-06-19T09:26:42;29.00;1.00
2945;DHT22;1482;51.398;7.128;2023-06-19T09:29:15;29.40;1.00
2945;DHT22;1482;51.398;7.128;2023-06-19T09:31:44;29.40;1.00
2945;DHT22;1482;51.398;7.128;2023-06-19T09:34:10;29.20;1.00
2945;DHT22;1482;51.398;7.128;2023-06-19T09:36:36;29.20;1.00
2945;DHT22;1482;51.398;7.128;2023-06-19T09:39:04;29.10;1.00
2945;DHT22;1482;51.398;7.128;2023-06-19T09:41:31;28.90;1.00
2945;DHT22;1482;51.398;7.128;2023-06-19T09:43:58;28.70;1.00
2945;DHT22;1482;51.398;7.128;2023-06-19T09:46:29;28.70;1.00
2945;DHT22;1482;51.398;7.128;2023-06-19T09:49:00;28.70;1.00
2945;DHT22;1482;51.398;7.128;2023-06-19T09:51:32;28.60;1.00
2945;DHT22;1482;51.398;7.128;2023-06-19T09:53:58;28.50;1.00
2945;DHT22;1482;51.398;7.128;2023-06-19T09:56:27;28.90;1.00
2945;DHT22;1482;51.398;7.128;2023-06-19T09:58:56;29.20;1.00
2945;DHT22;1482;51.398;7.128;2023-06-19T10:01:29;29.10;1.00
2945;DHT22;1482;51.398;7.128;2023-06-19T10:04:04;29.10;1.00
2945;DHT22;1482;51.398;7.128;2023-06-19T10:06:30;29.20;1.00
2945;DHT22;1482;51.398;7.128;2023-06-19T10:09:06;29.20;1.00
2945;DHT22;1482;51.398;7.128;2023-06-19T10:11:58;29.30;1.00
2945;DHT22;1482;51.398;7.128;2023-06-19T10:14:23;29.60;1.00
2945;DHT22;1482;51.398;7.128;2023-06-19T10:16:50;29.70;1.00
2945;DHT22;1482;51.398;7.128;2023-06-19T10:19:17;30.00;1.00
2945;DHT22;1482;51.398;7.128;2023-06-19T10:21:48;30.10;1.00
2945;DHT22;1482;51.398;7.128;2023-06-19T10:24:19;30.40;1.00
2945;DHT22;1482;51.398;7.128;2023-06-19T10:27:00;30.30;1.00
2945;DHT22;1482;51.398;7.128;2023-06-19T10:29:26;30.20;1.00
2945;DHT22;1482;51.398;7.128;2023-06-19T10:31:53;30.10;1.00
2945;DHT22;1482;51.398;7.128;2023-06-19T10:34:19;30.30;1.00
2945;DHT22;1482;51.398;7.128;2023-06-19T10:36:44;30.40;1.00
2945;DHT22;1482;51.398;7.128;2023-06-19T10:39:10;30.30;1.00
2945;DHT22;1482;51.398;7.128;2023-06-19T10:41:39;30.40;1.00
2945;DHT22;1482;51.398;7.128;2023-06-19T10:44:06;30.60;1.00
2945;DHT22;1482;51.398;7.128;2023-06-19T10:46:36;30.60;1.00
2945;DHT22;1482;51.398;7.128;2023-06-19T10:49:03;30.60;1.00
2945;DHT22;1482;51.398;7.128;2023-06-19T10:51:36;30.60;1.00
2945;DHT22;1482;51.398;7.128;2023-06-19T10:54:02;30.60;1.00
2945;DHT22;1482;51.398;7.128;2023-06-19T10:56:28;30.70;1.00
2945;DHT22;1482;51.398;7.128;2023-06-19T10:59:03;30.90;1.00
2945;DHT22;1482;51.398;7.128;2023-06-19T11:01:38;30.90;1.00
2945;DHT22;1482;51.398;7.128;2023-06-19T11:04:11;31.00;1.00
2945;DHT22;1482;51.398;7.128;2023-06-19T11:06:38;31.00;1.00
2945;DHT22;1482;51.398;7.128;2023-06-19T11:09:05;31.00;1.00
2945;DHT22;1482;51.398;7.128;2023-06-19T11:11:42;30.90;1.00
2945;DHT22;1482;51.398;7.128;2023-06-19T11:14:08;30.70;1.00
2945;DHT22;1482;51.398;7.128;2023-06-19T11:16:35;30.70;1.00
2945;DHT22;1482;51.398;7.128;2023-06-19T11:19:02;30.80;1.00
2945;DHT22;1482;51.398;7.128;2023-06-19T11:21:32;30.70;1.00
2945;DHT22;1482;51.398;7.128;2023-06-19T11:24:04;30.80;1.00
2945;DHT22;1482;51.398;7.128;2023-06-19T11:26:43;30.80;1.00
2945;DHT22;1482;51.398;7.128;2023-06-19T11:29:23;31.00;1.00
2945;DHT22;1482;51.398;7.128;2023-06-19T11:31:51;31.30;1.00
2945;DHT22;1482;51.398;7.128;2023-06-19T11:34:17;31.50;1.00
2945;DHT22;1482;51.398;7.128;2023-06-19T11:36:43;31.50;1.00
2945;DHT22;1482;51.398;7.128;2023-06-19T11:39:13;31.30;1.00
2945;DHT22;1482;51.398;7.128;2023-06-19T11:41:39;31.40;1.00
2945;DHT22;1482;51.398;7.128;2023-06-19T11:44:07;31.40;1.00
2945;DHT22;1482;51.398;7.128;2023-06-19T11:46:34;31.30;1.00
2945;DHT22;1482;51.398;7.128;2023-06-19T11:49:13;31.40;1.00
2945;DHT22;1482;51.398;7.128;2023-06-19T11:51:40;31.60;1.00
2945;DHT22;1482;51.398;7.128;2023-06-19T11:54:08;31.80;1.00
2945;DHT22;1482;51.398;7.128;2023-06-19T11:56:35;32.10;1.00
2945;DHT22;1482;51.398;7.128;2023-06-19T11:59:01;32.30;1.00
2945;DHT22;1482;51.398;7.128;2023-06-19T12:01:28;32.50;1.00
2945;DHT22;1482;51.398;7.128;2023-06-19T12:03:54;32.40;1.00
2945;DHT22;1482;51.398;7.128;2023-06-19T12:06:20;32.40;1.00
2945;DHT22;1482;51.398;7.128;2023-06-19T12:08:46;32.30;1.00
2945;DHT22;1482;51.398;7.128;2023-06-19T12:11:11;32.10;1.00
2945;DHT22;1482;51.398;7.128;2023-06-19T12:13:40;32.00;1.00
2945;DHT22;1482;51.398;7.128;2023-06-19T12:16:05;31.90;1.00
2945;DHT22;1482;51.398;7.128;2023-06-19T12:18:31;31.60;1.00
2945;DHT22;1482;51.398;7.128;2023-06-19T12:20:56;31.70;1.00
2945;DHT22;1482;51.398;7.128;2023-06-19T12:23:22;31.80;1.00
2945;DHT22;1482;51.398;7.128;2023-06-19T12:25:47;31.80;1.00
2945;DHT22;1482;51.398;7.128;2023-06-19T12:28:13;31.80;1.00
2945;DHT22;1482;51.398;7.128;2023-06-19T12:30:44;31.90;1.00
2945;DHT22;1482;51.398;7.128;2023-06-19T12:33:10;32.00;1.00
2945;DHT22;1482;51.398;7.128;2023-06-19T12:35:38;31.80;1.00
2945;DHT22;1482;51.398;7.128;2023-06-19T12:38:04;31.70;1.00
2945;DHT22;1482;51.398;7.128;2023-06-19T12:40:29;31.60;1.00
2945;DHT22;1482;51.398;7.128;2023-06-19T12:42:55;31.60;1.00
2945;DHT22;1482;51.398;7.128;2023-06-19T12:45:20;31.70;1.00
2945;DHT22;1482;51.398;7.128;2023-06-19T12:47:46;31.90;1.00
2945;DHT22;1482;51.398;7.128;2023-06-19T12:50:12;32.20;1.00
2945;DHT22;1482;51.398;7.128;2023-06-19T12:52:37;32.30;1.00
2945;DHT22;1482;51.398;7.128;2023-06-19T12:55:03;32.50;1.00
2945;DHT22;1482;51.398;7.128;2023-06-19T12:57:28;32.60;1.00
2945;DHT22;1482;51.398;7.128;2023-06-19T12:59:54;32.50;1.00
2945;DHT22;1482;51.398;7.128;2023-06-19T13:02:20;32.50;1.00
2945;DHT22;1482;51.398;7.128;2023-06-19T13:04:45;32.30;1.00
2945;DHT22;1482;51.398;7.128;2023-06-19T13:07:11;31.90;1.00
2945;DHT22;1482;51.398;7.128;2023-06-19T13:09:37;31.80;1.00
2945;DHT22;1482;51.398;7.128;2023-06-19T13:12:03;31.80;1.00
2945;DHT22;1482;51.398;7.128;2023-06-19T13:14:29;31.80;1.00
2945;DHT22;1482;51.398;7.128;2023-06-19T13:16:54;31.80;1.00
2945;DHT22;1482;51.398;7.128;2023-06-19T13:19:20;31.80;1.00
2945;DHT22;1482;51.398;7.128;2023-06-19T13:21:45;31.50;1.00
2945;DHT22;1482;51.398;7.128;2023-06-19T13:24:11;31.50;1.00
2945;DHT22;1482;51.398;7.128;2023-06-19T13:26:37;31.60;1.00
2945;DHT22;1482;51.398;7.128;2023-06-19T13:29:02;31.60;1.00
2945;DHT22;1482;51.398;7.128;2023-06-19T13:31:28;31.70;1.00
2945;DHT22;1482;51.398;7.128;2023-06-19T13:33:53;31.80;1.00
2945;DHT22;1482;51.398;7.128;2023-06-19T13:36:19;32.00;1.00
2945;DHT22;1482;51.398;7.128;2023-06-19T13:38:45;31.90;1.00
2945;DHT22;1482;51.398;7.128;2023-06-19T13:41:12;31.90;1.00
2945;DHT22;1482;51.398;7.128;2023-06-19T13:43:38;31.50;1.00
2945;DHT22;1482;51.398;7.128;2023-06-19T13:46:05;31.40;1.00
2945;DHT22;1482;51.398;7.128;2023-06-19T13:48:31;30.90;1.00
2945;DHT22;1482;51.398;7.128;2023-06-19T13:50:57;30.80;1.00
2945;DHT22;1482;51.398;7.128;2023-06-19T13:53:24;30.70;1.00
2945;DHT22;1482;51.398;7.128;2023-06-19T13:55:50;30.40;1.00
2945;DHT22;1482;51.398;7.128;2023-06-19T13:58:16;30.40;1.00
2945;DHT22;1482;51.398;7.128;2023-06-19T14:00:41;30.40;1.00
2945;DHT22;1482;51.398;7.128;2023-06-19T14:03:07;30.60;1.00
2945;DHT22;1482;51.398;7.128;2023-06-19T14:05:33;30.70;1.00
2945;DHT22;1482;51.398;7.128;2023-06-19T14:07:59;30.80;1.00
2945;DHT22;1482;51.398;7.128;2023-06-19T14:10:25;30.90;1.00
2945;DHT22;1482;51.398;7.128;2023-06-19T14:12:50;31.00;1.00
2945;DHT22;1482;51.398;7.128;2023-06-19T14:15:16;31.00;1.00
2945;DHT22;1482;51.398;7.128;2023-06-19T14:17:41;31.10;1.00
2945;DHT22;1482;51.398;7.128;2023-06-19T14:20:10;31.20;1.00
2945;DHT22;1482;51.398;7.128;2023-06-19T14:22:35;31.30;1.00
2945;DHT22;1482;51.398;7.128;2023-06-19T14:25:01;31.40;1.00
2945;DHT22;1482;51.398;7.128;2023-06-19T14:27:28;31.40;1.00
2945;DHT22;1482;51.398;7.128;2023-06-19T14:29:54;31.50;1.00
2945;DHT22;1482;51.398;7.128;2023-06-19T14:32:21;31.60;1.00
2945;DHT22;1482;51.398;7.128;2023-06-19T14:34:46;31.50;1.00
2945;DHT22;1482;51.398;7.128;2023-06-19T14:37:12;31.40;1.00
2945;DHT22;1482;51.398;7.128;2023-06-19T14:39:37;31.10;1.00
2945;DHT22;1482;51.398;7.128;2023-06-19T14:42:03;31.10;1.00
2945;DHT22;1482;51.398;7.128;2023-06-19T14:44:29;31.10;1.00
2945;DHT22;1482;51.398;7.128;2023-06-19T14:46:55;31.10;1.00
2945;DHT22;1482;51.398;7.128;2023-06-19T14:49:20;31.00;1.00
2945;DHT22;1482;51.398;7.128;2023-06-19T14:51:46;31.00;1.00
2945;DHT22;1482;51.398;7.128;2023-06-19T14:54:11;30.90;1.00
2945;DHT22;1482;51.398;7.128;2023-06-19T14:56:38;30.80;1.00
2945;DHT22;1482;51.398;7.128;2023-06-19T14:59:04;30.90;1.00
2945;DHT22;1482;51.398;7.128;2023-06-19T15:01:29;30.90;1.00
2945;DHT22;1482;51.398;7.128;2023-06-19T15:03:55;30.90;1.00
2945;DHT22;1482;51.398;7.128;2023-06-19T15:06:20;30.90;1.00
2945;DHT22;1482;51.398;7.128;2023-06-19T15:08:46;30.90;1.00
2945;DHT22;1482;51.398;7.128;2023-06-19T15:11:11;31.00;1.00
2945;DHT22;1482;51.398;7.128;2023-06-19T15:13:37;31.00;1.00
2945;DHT22;1482;51.398;7.128;2023-06-19T15:16:02;31.00;1.00
2945;DHT22;1482;51.398;7.128;2023-06-19T15:18:30;31.00;1.00
2945;DHT22;1482;51.398;7.128;2023-06-19T15:20:55;30.90;1.00
2945;DHT22;1482;51.398;7.128;2023-06-19T15:23:21;30.90;1.00
2945;DHT22;1482;51.398;7.128;2023-06-19T15:25:47;30.90;1.00
2945;DHT22;1482;51.398;7.128;2023-06-19T15:28:14;31.00;1.00
2945;DHT22;1482;51.398;7.128;2023-06-19T15:30:40;30.80;1.00
2945;DHT22;1482;51.398;7.128;2023-06-19T15:33:05;30.80;1.00
2945;DHT22;1482;51.398;7.128;2023-06-19T15:35:31;30.90;1.00
2945;DHT22;1482;51.398;7.128;2023-06-19T15:37:56;30.80;1.00
2945;DHT22;1482;51.398;7.128;2023-06-19T15:40:24;30.80;1.00
2945;DHT22;1482;51.398;7.128;2023-06-19T15:42:50;30.80;1.00
2945;DHT22;1482;51.398;7.128;2023-06-19T15:45:16;30.60;1.00
2945;DHT22;1482;51.398;7.128;2023-06-19T15:47:42;30.50;1.00
2945;DHT22;1482;51.398;7.128;2023-06-19T15:50:08;30.50;1.00
2945;DHT22;1482;51.398;7.128;2023-06-19T15:52:34;30.40;1.00
2945;DHT22;1482;51.398;7.128;2023-06-19T15:55:00;30.30;1.00
2945;DHT22;1482;51.398;7.128;2023-06-19T15:57:25;30.30;1.00
2945;DHT22;1482;51.398;7.128;2023-06-19T15:59:51;30.30;1.00
2945;DHT22;1482;51.398;7.128;2023-06-19T16:02:18;30.20;1.00
2945;DHT22;1482;51.398;7.128;2023-06-19T16:04:45;30.20;1.00
2945;DHT22;1482;51.398;7.128;2023-06-19T16:07:10;30.00;1.00
2945;DHT22;1482;51.398;7.128;2023-06-19T16:09:36;29.90;1.00
2945;DHT22;1482;51.398;7.128;2023-06-19T16:12:02;29.80;1.00
2945;DHT22;1482;51.398;7.128;2023-06-19T16:14:28;29.80;1.00
2945;DHT22;1482;51.398;7.128;2023-06-19T16:16:53;29.80;1.00
2945;DHT22;1482;51.398;7.128;2023-06-19T16:19:19;29.80;1.00